Time;durP1;ratioP1;P1;durP2;ratioP2;P2;SDS_P1;SDS_P2;PMS_P1;PMS_P2;Temp;Humidity;BMP_temperature;BMP_pressure;BME280_temperature;BME280_humidity;BME280_pressure;Samples;Min_cycle;Max_cycle;Signal;HPM_P1;HPM_P2
2023/04/03 00:01:47;;;;;;;2.43;2.10;;;;;;;;;;4961978;28;20190;-86
2023/04/03 00:04:51;;;;;;;4.27;2.07;;;;;;;;;;4984394;28;20226;-86
2023/04/03 00:07:55;;;;;;;2.93;2.03;;;;;;;;;;4972725;28;20179;-86
2023/04/03 00:10:59;;;;;;;2.87;2.23;;;;;;;;;;4973104;28;20178;-86
2023/04/03 00:14:03;;;;;;;2.40;1.80;;;;;;;;;;4961527;28;20218;-86
2023/04/03 00:17:07;;;;;;;3.73;2.30;;;;;;;;;;4961285;28;20202;-86
2023/04/03 00:20:11;;;;;;;2.60;2.03;;;;;;;;;;4972652;28;20197;-86
2023/04/03 00:23:16;;;;;;;3.47;2.30;;;;;;;;;;4994754;28;20686;-86
2023/04/03 00:26:20;;;;;;;2.93;2.13;;;;;;;;;;4961908;28;20616;-86
2023/04/03 00:29:25;;;;;;;3.83;2.10;;;;;;;;;;4972375;28;20226;-86
2023/04/03 00:32:28;;;;;;;3.60;2.13;;;;;;;;;;4972255;28;20205;-86
2023/04/03 00:35:34;;;;;;;2.17;1.90;;;;;;;;;;4961002;28;20201;-86
2023/04/03 00:38:38;;;;;;;3.57;2.00;;;;;;;;;;4971986;28;20202;-86
2023/04/03 00:41:43;;;;;;;3.67;2.07;;;;;;;;;;4960983;28;20551;-86
2023/04/03 00:44:47;;;;;;;2.43;1.90;;;;;;;;;;4983033;28;20217;-86
2023/04/03 00:47:51;;;;;;;4.97;2.30;;;;;;;;;;4983173;28;20190;-86
2023/04/03 00:50:56;;;;;;;2.33;2.07;;;;;;;;;;4961006;28;20183;-86
2023/04/03 00:54:04;;;;;;;3.53;2.13;;;;;;;;;;4960524;28;20221;-86
2023/04/03 00:57:09;;;;;;;2.63;2.10;;;;;;;;;;4983228;28;20659;-86
2023/04/03 01:00:18;;;;;;;2.33;2.13;;;;;;;;;;4982900;28;20183;-86
2023/04/03 01:03:22;;;;;;;2.10;1.90;;;;;;;;;;4971737;28;20229;-86
2023/04/03 01:06:33;;;;;;;2.10;1.80;;;;;;;;;;4971840;28;20186;-86
2023/04/03 01:09:45;;;;;;;2.43;1.90;;;;;;;;;;4972435;28;20218;-86
2023/04/03 01:12:50;;;;;;;4.73;2.20;;;;;;;;;;4971620;28;20186;-86
2023/04/03 01:15:54;;;;;;;2.63;1.90;;;;;;;;;;4982790;28;20182;-86
2023/04/03 01:19:01;;;;;;;3.53;2.00;;;;;;;;;;4971335;28;20190;-86
2023/04/03 01:22:19;;;;;;;2.63;2.17;;;;;;;;;;4971555;28;20201;-86
2023/04/03 01:25:24;;;;;;;2.07;1.80;;;;;;;;;;4971504;28;20183;-86
2023/04/03 01:28:34;;;;;;;4.43;2.07;;;;;;;;;;4960457;28;20548;-86
2023/04/03 01:31:50;;;;;;;3.80;2.00;;;;;;;;;;4971396;28;20194;-86
2023/04/03 01:34:54;;;;;;;5.20;2.43;;;;;;;;;;4960031;28;20222;-86
2023/04/03 01:37:59;;;;;;;2.63;2.20;;;;;;;;;;4971333;28;20182;-86
2023/04/03 01:41:03;;;;;;;1.97;1.77;;;;;;;;;;4971471;28;20540;-86
2023/04/03 01:44:08;;;;;;;3.40;2.20;;;;;;;;;;4973977;28;20686;-86
2023/04/03 01:47:12;;;;;;;5.87;2.57;;;;;;;;;;4970871;28;20201;-86
2023/04/03 01:50:17;;;;;;;3.73;2.30;;;;;;;;;;4959696;28;20225;-86
2023/04/03 01:53:22;;;;;;;3.07;2.30;;;;;;;;;;4971013;28;20571;-86
2023/04/03 01:56:26;;;;;;;3.30;2.50;;;;;;;;;;4959968;28;20190;-86
2023/04/03 01:59:31;;;;;;;2.83;2.00;;;;;;;;;;4960349;28;20198;-86
2023/04/03 02:02:35;;;;;;;3.73;2.30;;;;;;;;;;4960246;28;20190;-86
2023/04/03 02:05:39;;;;;;;2.70;2.30;;;;;;;;;;4971257;28;20182;-86
2023/04/03 02:08:43;;;;;;;2.97;2.33;;;;;;;;;;4970462;28;20182;-86
2023/04/03 02:11:47;;;;;;;2.27;2.00;;;;;;;;;;4970737;28;20178;-86
2023/04/03 02:14:51;;;;;;;2.70;2.50;;;;;;;;;;4981718;28;20698;-86
2023/04/03 02:17:55;;;;;;;3.57;2.33;;;;;;;;;;4982192;28;20206;-86
2023/04/03 02:20:59;;;;;;;4.40;2.73;;;;;;;;;;4959834;28;20198;-86
2023/04/03 02:24:04;;;;;;;4.27;2.40;;;;;;;;;;4981601;28;20221;-86
2023/04/03 02:27:08;;;;;;;3.10;2.37;;;;;;;;;;4959738;28;20186;-86
2023/04/03 02:30:14;;;;;;;3.60;2.63;;;;;;;;;;4959802;28;20217;-86
2023/04/03 02:33:18;;;;;;;2.90;2.53;;;;;;;;;;4959729;28;20225;-86
2023/04/03 02:36:22;;;;;;;3.43;2.40;;;;;;;;;;4959709;28;20191;-86
2023/04/03 02:39:31;;;;;;;3.10;2.57;;;;;;;;;;4971440;28;20179;-86
2023/04/03 02:42:37;;;;;;;2.90;2.40;;;;;;;;;;4970925;28;20182;-86
2023/04/03 02:45:41;;;;;;;4.07;2.80;;;;;;;;;;4959746;28;20179;-86
2023/04/03 02:48:45;;;;;;;3.00;2.50;;;;;;;;;;4992589;28;20202;-86
2023/04/03 02:51:50;;;;;;;2.60;2.40;;;;;;;;;;4970464;28;20579;-86
2023/04/03 02:54:55;;;;;;;3.83;2.83;;;;;;;;;;4959452;28;20226;-86
2023/04/03 02:57:59;;;;;;;4.00;2.67;;;;;;;;;;4970386;28;20182;-86
2023/04/03 03:01:03;;;;;;;4.27;2.90;;;;;;;;;;4970448;28;20178;-86
2023/04/03 03:52:44;;;;;;;3.40;2.50;;;;;;;;;;4899877;29;20217;-85
2023/04/03 03:56:13;;;;;;;2.93;2.33;;;;;;;;;;4878284;29;20532;-85
2023/04/03 03:59:19;;;;;;;4.77;2.37;;;;;;;;;;4890097;29;20209;-87
2023/04/03 04:02:24;;;;;;;2.80;2.30;;;;;;;;;;5003978;28;20190;-87
2023/04/03 04:05:30;;;;;;;5.57;2.63;;;;;;;;;;4980704;28;20186;-87
2023/04/03 04:08:35;;;;;;;4.57;2.30;;;;;;;;;;4988622;28;20639;-83
2023/04/03 04:11:40;;;;;;;4.90;2.67;;;;;;;;;;4966896;28;20213;-85
2023/04/03 04:14:46;;;;;;;3.87;2.53;;;;;;;;;;4976938;28;20221;-85
2023/04/03 04:17:51;;;;;;;4.10;2.93;;;;;;;;;;4989289;28;20663;-85
2023/04/03 04:20:56;;;;;;;4.87;2.63;;;;;;;;;;4989345;28;20186;-84
2023/04/03 04:24:00;;;;;;;5.33;2.53;;;;;;;;;;4977198;28;20218;-84
2023/04/03 05:01:18;;;;;;;5.30;3.30;;;;;;;;;;4964730;28;20618;-86
2023/04/03 05:04:34;;;;;;;3.83;3.40;;;;;;;;;;4965346;28;20638;-86
2023/04/03 05:08:04;;;;;;;6.07;3.93;;;;;;;;;;4963184;28;20558;-87
2023/04/03 05:12:09;;;;;;;5.17;3.30;;;;;;;;;;4975529;28;20532;-87
2023/04/03 05:15:30;;;;;;;3.50;3.10;;;;;;;;;;4975374;28;20887;-87
2023/04/03 05:18:35;;;;;;;6.73;3.30;;;;;;;;;;4963909;28;21099;-87
2023/04/03 05:21:44;;;;;;;7.07;3.50;;;;;;;;;;4953366;28;20547;-87
2023/04/03 05:24:51;;;;;;;4.97;3.63;;;;;;;;;;4952682;28;20629;-87
2023/04/03 05:27:57;;;;;;;5.03;3.40;;;;;;;;;;4974621;28;20554;-87
2023/04/03 05:31:03;;;;;;;11.03;3.60;;;;;;;;;;4963761;28;20594;-87
2023/04/03 05:34:11;;;;;;;5.77;3.80;;;;;;;;;;4974397;28;20630;-87
2023/04/03 05:37:17;;;;;;;4.33;3.60;;;;;;;;;;4963629;28;20597;-87
2023/04/03 05:40:21;;;;;;;6.87;3.40;;;;;;;;;;4963359;28;21075;-87
2023/04/03 05:59:09;;;;;;;6.53;3.37;;;;;;;;;;4896750;29;20613;-89
2023/04/03 06:03:55;;;;;;;3.53;2.77;;;;;;;;;;4944033;29;21068;-88
2023/04/03 06:13:37;;;;;;;4.20;3.03;;;;;;;;;;4961533;29;20552;-87
2023/04/03 06:43:05;;;;;;;5.50;2.70;;;;;;;;;;4947701;29;20603;-87
2023/04/03 06:46:17;;;;;;;3.23;2.90;;;;;;;;;;4954260;29;20211;-86
2023/04/03 06:49:27;;;;;;;4.13;2.87;;;;;;;;;;4982783;28;20168;-84
2023/04/03 06:53:39;;;;;;;5.70;3.03;;;;;;;;;;4967397;29;20692;-86
2023/04/03 07:01:22;;;;;;;5.77;3.37;;;;;;;;;;4933325;28;20680;-86
2023/04/03 07:04:26;;;;;;;6.17;3.23;;;;;;;;;;4970781;28;20223;-85
2023/04/03 07:07:30;;;;;;;3.83;3.00;;;;;;;;;;4982189;28;20235;-85
2023/04/03 07:10:34;;;;;;;3.60;3.10;;;;;;;;;;4959541;28;20207;-86
2023/04/03 07:13:38;;;;;;;5.43;3.10;;;;;;;;;;4970379;28;20218;-87
2023/04/03 07:16:43;;;;;;;4.77;3.00;;;;;;;;;;4970860;28;20186;-86
2023/04/03 07:19:47;;;;;;;3.73;2.80;;;;;;;;;;4969922;28;20187;-86
2023/04/03 07:22:51;;;;;;;5.00;3.10;;;;;;;;;;4980044;28;20179;-85
2023/04/03 07:26:22;;;;;;;4.53;3.63;;;;;;;;;;4967186;28;20191;-86
2023/04/03 07:29:26;;;;;;;4.73;3.30;;;;;;;;;;4966735;28;20190;-86
2023/04/03 07:33:22;;;;;;;;;;;;;;;;;;;;;
2023/04/03 07:37:02;;;;;;;6.70;3.17;;;;;;;;;;4966977;28;20182;-87
2023/04/03 07:40:32;;;;;;;5.10;2.97;;;;;;;;;;4966359;28;20660;-88
2023/04/03 07:43:36;;;;;;;3.83;3.37;;;;;;;;;;4965635;28;20227;-88
2023/04/03 07:46:48;;;;;;;6.87;3.30;;;;;;;;;;4955199;28;20187;-88
2023/04/03 07:49:52;;;;;;;6.07;3.57;;;;;;;;;;4953521;28;20179;-88
2023/04/03 07:53:03;;;;;;;4.37;3.27;;;;;;;;;;4954775;28;20544;-88
2023/04/03 07:56:18;;;;;;;11.13;4.23;;;;;;;;;;4956856;28;20195;-88
2023/04/03 07:59:26;;;;;;;8.53;3.50;;;;;;;;;;4954918;28;20191;-88
2023/04/03 08:02:34;;;;;;;6.87;3.60;;;;;;;;;;4954536;28;20203;-88
2023/04/03 08:05:43;;;;;;;8.67;3.97;;;;;;;;;;4954354;28;20190;-88
2023/04/03 08:08:47;;;;;;;9.83;4.00;;;;;;;;;;4954399;28;20636;-89
2023/04/03 08:11:55;;;;;;;5.17;3.40;;;;;;;;;;4954254;28;20210;-88
2023/04/03 08:15:17;;;;;;;3.27;2.60;;;;;;;;;;4964649;28;20223;-88
2023/04/03 08:18:24;;;;;;;4.33;2.90;;;;;;;;;;4953808;28;20183;-88
2023/04/03 08:21:31;;;;;;;6.60;3.20;;;;;;;;;;4953882;28;20187;-88
2023/04/03 08:24:47;;;;;;;4.17;3.10;;;;;;;;;;4953313;28;20226;-88
2023/04/03 08:28:02;;;;;;;4.13;3.20;;;;;;;;;;4953528;28;20203;-88
2023/04/03 08:31:18;;;;;;;7.33;3.67;;;;;;;;;;4953634;28;20219;-88
2023/04/03 08:34:23;;;;;;;3.80;2.93;;;;;;;;;;4953768;28;20223;-88
2023/04/03 08:37:31;;;;;;;6.17;3.40;;;;;;;;;;4954020;28;20194;-89
2023/04/03 08:40:38;;;;;;;5.27;3.07;;;;;;;;;;4953351;28;20203;-88
2023/04/03 08:44:18;;;;;;;4.43;2.80;;;;;;;;;;4953325;28;20214;-88
2023/04/03 08:47:41;;;;;;;6.83;3.97;;;;;;;;;;4953167;28;20207;-89
2023/04/03 08:50:57;;;;;;;6.63;3.40;;;;;;;;;;4964363;28;20187;-89
2023/04/03 08:54:07;;;;;;;6.47;3.80;;;;;;;;;;4953363;28;20222;-88
2023/04/03 08:57:18;;;;;;;6.10;3.40;;;;;;;;;;4953690;28;20199;-89
2023/04/03 09:00:50;;;;;;;5.50;3.20;;;;;;;;;;4953636;28;20186;-88
2023/04/03 09:03:54;;;;;;;5.43;3.03;;;;;;;;;;5005207;23;20225;-85
2023/04/03 09:07:07;;;;;;;6.43;3.17;;;;;;;;;;4992660;28;20185;-86
2023/04/03 09:10:15;;;;;;;5.60;3.33;;;;;;;;;;4981169;28;20547;-86
2023/04/03 09:13:32;;;;;;;3.67;3.00;;;;;;;;;;4992844;28;20178;-86
2023/04/03 09:16:52;;;;;;;3.87;2.37;;;;;;;;;;4983918;28;20198;-86
2023/04/03 09:20:11;;;;;;;4.47;2.57;;;;;;;;;;4972802;28;20187;-86
2023/04/03 09:23:28;;;;;;;3.50;2.40;;;;;;;;;;4962807;28;20186;-86
2023/04/03 09:26:39;;;;;;;4.77;2.50;;;;;;;;;;4973044;28;20191;-86
2023/04/03 09:29:45;;;;;;;4.57;2.80;;;;;;;;;;4972862;28;20524;-86
2023/04/03 09:32:52;;;;;;;4.23;2.97;;;;;;;;;;4996144;28;20230;-86
2023/04/03 09:35:56;;;;;;;2.87;2.53;;;;;;;;;;4983747;28;20182;-86
2023/04/03 09:39:05;;;;;;;5.33;2.87;;;;;;;;;;4982985;28;20202;-86
2023/04/03 09:42:19;;;;;;;3.70;2.60;;;;;;;;;;4972240;28;20670;-85
2023/04/03 09:45:34;;;;;;;6.37;3.03;;;;;;;;;;4982802;28;20218;-86
2023/04/03 09:48:38;;;;;;;5.97;3.40;;;;;;;;;;4983198;28;20186;-86
2023/04/03 09:51:43;;;;;;;7.03;2.67;;;;;;;;;;4971197;28;20222;-85
2023/04/03 09:54:48;;;;;;;4.17;2.43;;;;;;;;;;4971042;28;20567;-86
2023/04/03 09:57:53;;;;;;;3.77;2.57;;;;;;;;;;4970894;28;20531;-85
2023/04/03 10:00:59;;;;;;;6.17;2.30;;;;;;;;;;4971066;28;20190;-86
2023/04/03 10:04:15;;;;;;;5.60;2.60;;;;;;;;;;4959737;28;20230;-86
2023/04/03 10:07:36;;;;;;;3.43;2.03;;;;;;;;;;4970821;28;20183;-86
2023/04/03 10:10:48;;;;;;;4.80;2.57;;;;;;;;;;4971015;28;20182;-85
2023/04/03 10:13:59;;;;;;;5.73;2.80;;;;;;;;;;4974886;28;20221;-86
2023/04/03 10:17:09;;;;;;;4.77;2.43;;;;;;;;;;4975026;28;20186;-86
2023/04/03 10:20:32;;;;;;;5.30;2.50;;;;;;;;;;4986040;28;20190;-85
2023/04/03 10:23:46;;;;;;;4.50;2.40;;;;;;;;;;4985949;28;20183;-86
2023/04/03 10:27:02;;;;;;;3.63;1.83;;;;;;;;;;4996945;28;20190;-86
2023/04/03 10:30:12;;;;;;;4.70;2.50;;;;;;;;;;4974744;28;20187;-86
2023/04/03 10:33:53;;;;;;;3.80;2.30;;;;;;;;;;4974422;28;20591;-86
2023/04/03 10:37:23;;;;;;;4.77;2.00;;;;;;;;;;4985555;28;20186;-86
2023/04/03 10:40:57;;;;;;;2.33;1.90;;;;;;;;;;4974560;28;20186;-86
2023/04/03 10:44:42;;;;;;;4.40;2.07;;;;;;;;;;4974912;28;20555;-86
2023/04/03 10:47:54;;;;;;;2.77;1.93;;;;;;;;;;4976012;28;20186;-86
2023/04/03 10:51:26;;;;;;;3.40;2.10;;;;;;;;;;4963550;28;20186;-86
2023/04/03 10:54:40;;;;;;;2.77;1.80;;;;;;;;;;4974040;28;20225;-86
2023/04/03 10:57:46;;;;;;;3.13;2.00;;;;;;;;;;4985347;28;20191;-86
2023/04/03 11:00:53;;;;;;;2.67;2.00;;;;;;;;;;4985445;28;20660;-86
2023/04/03 11:04:00;;;;;;;3.53;2.20;;;;;;;;;;4973906;28;20225;-86
2023/04/03 11:07:14;;;;;;;3.37;1.80;;;;;;;;;;4985289;28;20524;-86
2023/04/03 11:10:26;;;;;;;2.67;1.67;;;;;;;;;;4985175;28;20635;-86
2023/04/03 11:13:40;;;;;;;6.80;1.90;;;;;;;;;;4984998;28;20214;-85
2023/04/03 11:16:47;;;;;;;1.83;1.40;;;;;;;;;;4985150;28;20190;-85
2023/04/03 11:20:14;;;;;;;3.73;1.83;;;;;;;;;;4984721;28;20206;-85
2023/04/03 11:23:28;;;;;;;1.80;1.60;;;;;;;;;;4972915;28;20183;-86
2023/04/03 11:26:38;;;;;;;3.70;1.90;;;;;;;;;;4984674;28;20187;-86
2023/04/03 11:29:45;;;;;;;2.53;1.70;;;;;;;;;;4962647;28;20190;-86
2023/04/03 11:33:24;;;;;;;2.67;1.83;;;;;;;;;;4973303;28;20210;-86
2023/04/03 11:36:38;;;;;;;2.47;1.63;;;;;;;;;;4984485;28;20178;-85
2023/04/03 11:39:53;;;;;;;3.93;1.70;;;;;;;;;;4995926;28;20186;-86
2023/04/03 11:42:59;;;;;;;5.57;1.67;;;;;;;;;;4984132;28;20639;-86
2023/04/03 11:46:06;;;;;;;3.43;1.50;;;;;;;;;;4973279;28;20202;-86
2023/04/03 11:49:48;;;;;;;2.73;1.50;;;;;;;;;;4973430;28;20186;-86
2023/04/03 11:52:52;;;;;;;3.37;1.50;;;;;;;;;;4973075;28;20667;-86
2023/04/03 11:55:58;;;;;;;5.53;3.10;;;;;;;;;;4973197;28;20186;-85
2023/04/03 11:59:05;;;;;;;5.03;2.00;;;;;;;;;;4973078;28;20178;-85
2023/04/03 12:02:36;;;;;;;4.10;2.30;;;;;;;;;;4972621;28;20512;-85
2023/04/03 12:05:40;;;;;;;6.47;1.73;;;;;;;;;;4972419;28;20222;-85
2023/04/03 12:08:49;;;;;;;3.63;2.10;;;;;;;;;;4983978;28;20187;-85
2023/04/03 12:11:55;;;;;;;2.13;1.50;;;;;;;;;;4983737;28;20560;-86
2023/04/03 12:15:21;;;;;;;3.30;2.57;;;;;;;;;;4985271;28;20226;-86
2023/04/03 12:18:51;;;;;;;2.40;1.20;;;;;;;;;;4974111;28;20190;-86
2023/04/03 12:21:57;;;;;;;3.33;1.23;;;;;;;;;;4978634;28;20182;-84
2023/04/03 12:25:47;;;;;;;12.10;2.83;;;;;;;;;;4977287;28;20218;-84
2023/04/03 12:28:53;;;;;;;3.73;1.63;;;;;;;;;;4977944;28;20639;-84
2023/04/03 12:32:03;;;;;;;2.13;1.37;;;;;;;;;;4965616;28;20210;-83
2023/04/03 12:35:43;;;;;;;15.27;3.00;;;;;;;;;;4999995;28;20226;-84
2023/04/03 12:39:14;;;;;;;4.03;1.17;;;;;;;;;;5004512;28;20201;-84
2023/04/03 12:42:32;;;;;;;1.97;1.27;;;;;;;;;;4986372;28;20182;-85
2023/04/03 12:45:54;;;;;;;1.87;1.07;;;;;;;;;;4984165;28;20218;-85
2023/04/03 12:49:00;;;;;;;3.77;1.20;;;;;;;;;;4962722;28;20194;-85
2023/04/03 12:52:24;;;;;;;1.30;1.20;;;;;;;;;;4974047;28;20218;-85
2023/04/03 12:55:29;;;;;;;2.67;1.03;;;;;;;;;;4974433;28;20226;-85
2023/04/03 12:58:33;;;;;;;2.33;1.37;;;;;;;;;;4973724;28;20188;-85
2023/04/03 13:01:37;;;;;;;1.00;0.80;;;;;;;;;;4985207;28;20201;-84
2023/04/03 13:04:41;;;;;;;2.17;1.20;;;;;;;;;;4984773;28;20218;-83
2023/04/03 13:07:56;;;;;;;2.20;1.00;;;;;;;;;;4983663;28;20182;-86
2023/04/03 13:11:10;;;;;;;1.83;1.03;;;;;;;;;;4983169;28;20203;-86
2023/04/03 13:14:18;;;;;;;3.93;1.00;;;;;;;;;;4973105;28;20568;-85
2023/04/03 13:17:23;;;;;;;1.73;1.10;;;;;;;;;;4985217;28;20183;-85
2023/04/03 13:20:33;;;;;;;2.20;1.17;;;;;;;;;;4973252;28;20190;-85
2023/04/03 13:23:43;;;;;;;2.40;1.20;;;;;;;;;;4982457;28;20194;-85
2023/04/03 13:26:51;;;;;;;4.57;1.53;;;;;;;;;;4973857;28;20670;-85
2023/04/03 13:29:59;;;;;;;1.77;1.17;;;;;;;;;;4972642;28;20182;-86
2023/04/03 13:33:18;;;;;;;2.50;1.20;;;;;;;;;;4983432;28;20209;-85
2023/04/03 13:36:27;;;;;;;5.13;1.27;;;;;;;;;;4973062;28;20206;-85
2023/04/03 13:39:34;;;;;;;2.10;1.27;;;;;;;;;;4984976;28;20191;-85
2023/04/03 13:42:41;;;;;;;3.77;1.17;;;;;;;;;;4973246;28;20179;-85
2023/04/03 13:46:06;;;;;;;3.47;1.30;;;;;;;;;;4984467;28;20217;-85
2023/04/03 13:49:28;;;;;;;2.73;1.50;;;;;;;;;;4973391;28;20190;-88
2023/04/03 13:52:40;;;;;;;3.53;1.07;;;;;;;;;;4998195;28;20568;-83
2023/04/03 13:56:02;;;;;;;2.87;1.40;;;;;;;;;;4976071;28;20230;-83
2023/04/03 13:59:16;;;;;;;5.13;1.20;;;;;;;;;;4975984;28;20190;-85
2023/04/03 14:02:33;;;;;;;1.80;1.10;;;;;;;;;;4976692;28;20198;-84
2023/04/03 14:05:40;;;;;;;1.70;1.00;;;;;;;;;;4998103;28;20234;-83
2023/04/03 14:08:45;;;;;;;2.83;1.17;;;;;;;;;;4987862;28;20186;-83
2023/04/03 14:11:55;;;;;;;2.67;1.10;;;;;;;;;;4987167;28;20194;-83
2023/04/03 14:15:11;;;;;;;1.73;1.20;;;;;;;;;;4985905;28;20222;-83
2023/04/03 14:18:19;;;;;;;1.97;1.40;;;;;;;;;;4974857;28;20202;-83
2023/04/03 14:21:23;;;;;;;4.70;1.50;;;;;;;;;;4986815;28;20186;-83
2023/04/03 14:24:28;;;;;;;2.83;1.50;;;;;;;;;;4963694;28;20217;-83
2023/04/03 14:27:40;;;;;;;2.27;1.20;;;;;;;;;;4988311;28;20187;-84
2023/04/03 14:30:46;;;;;;;1.70;1.20;;;;;;;;;;4999714;28;20631;-83
2023/04/03 14:33:50;;;;;;;1.40;1.10;;;;;;;;;;4987823;28;20233;-83
2023/04/03 14:36:55;;;;;;;4.23;1.30;;;;;;;;;;4976360;28;20202;-83
2023/04/03 14:40:00;;;;;;;1.40;1.20;;;;;;;;;;4986286;28;20206;-83
2023/04/03 14:43:05;;;;;;;2.23;1.30;;;;;;;;;;4977161;28;20198;-83
2023/04/03 14:46:21;;;;;;;3.80;1.30;;;;;;;;;;4976350;28;20191;-84
2023/04/03 14:49:28;;;;;;;2.13;1.60;;;;;;;;;;4976753;28;20546;-83
2023/04/03 14:52:35;;;;;;;5.37;1.60;;;;;;;;;;4976066;28;20206;-83
2023/04/03 14:55:44;;;;;;;3.30;1.60;;;;;;;;;;4975482;28;20218;-84
2023/04/03 14:58:52;;;;;;;5.30;1.80;;;;;;;;;;4987462;28;20216;-84
2023/04/03 15:01:57;;;;;;;2.10;1.30;;;;;;;;;;4979325;28;20643;-83
2023/04/03 15:05:03;;;;;;;3.50;1.50;;;;;;;;;;4975912;28;20233;-83
2023/04/03 15:08:21;;;;;;;5.43;1.20;;;;;;;;;;4979489;28;20190;-83
2023/04/03 15:11:26;;;;;;;3.37;1.40;;;;;;;;;;4978350;28;20246;-82
2023/04/03 15:14:30;;;;;;;3.63;1.77;;;;;;;;;;4989839;28;20394;-83
2023/04/03 15:17:36;;;;;;;2.47;1.60;;;;;;;;;;4988820;28;20201;-82
2023/04/03 15:20:40;;;;;;;5.13;1.83;;;;;;;;;;4962277;28;20201;-82
2023/04/03 15:23:44;;;;;;;2.17;1.50;;;;;;;;;;4985711;28;20658;-82
2023/04/03 15:26:48;;;;;;;3.67;2.33;;;;;;;;;;4964451;28;20182;-83
2023/04/03 15:29:54;;;;;;;2.33;1.40;;;;;;;;;;4974792;28;20186;-86
2023/04/03 15:32:58;;;;;;;2.97;1.50;;;;;;;;;;4963145;28;20210;-83
2023/04/03 15:36:03;;;;;;;3.83;1.37;;;;;;;;;;4985534;28;20186;-83
2023/04/03 15:39:07;;;;;;;4.23;1.37;;;;;;;;;;4975001;28;20186;-83
2023/04/03 15:42:12;;;;;;;4.70;2.00;;;;;;;;;;4984263;28;20194;-83
2023/04/03 15:45:16;;;;;;;2.83;1.67;;;;;;;;;;4973531;28;20210;-83
2023/04/03 15:48:20;;;;;;;6.20;2.13;;;;;;;;;;4995591;28;20520;-83
2023/04/03 15:51:24;;;;;;;4.10;1.50;;;;;;;;;;4972985;28;20186;-82
2023/04/03 15:54:29;;;;;;;4.27;1.40;;;;;;;;;;4972899;28;20230;-82
2023/04/03 15:57:33;;;;;;;2.37;1.47;;;;;;;;;;4995090;28;20643;-83
2023/04/03 16:00:38;;;;;;;3.47;1.40;;;;;;;;;;4973127;28;20619;-83
2023/04/03 16:03:44;;;;;;;3.10;1.40;;;;;;;;;;4973444;28;20186;-83
2023/04/03 16:06:49;;;;;;;3.93;1.60;;;;;;;;;;4969955;28;20210;-83
2023/04/03 16:09:53;;;;;;;3.53;1.40;;;;;;;;;;4967431;28;20206;-83
2023/04/03 16:12:57;;;;;;;5.80;1.63;;;;;;;;;;4982286;28;20213;-82
2023/04/03 16:16:02;;;;;;;4.27;1.90;;;;;;;;;;5001060;23;20241;-86
2023/04/03 16:19:07;;;;;;;4.10;1.40;;;;;;;;;;4979286;28;20201;-86
2023/04/03 16:22:13;;;;;;;9.53;1.60;;;;;;;;;;5013237;28;20206;-85
2023/04/03 16:25:17;;;;;;;3.17;1.70;;;;;;;;;;5006152;28;20221;-85
2023/04/03 16:28:21;;;;;;;4.17;2.50;;;;;;;;;;5004032;28;20190;-85
2023/04/03 16:31:26;;;;;;;2.43;1.60;;;;;;;;;;5002525;28;20193;-85
2023/04/03 16:44:16;;;;;;;3.70;1.50;;;;;;;;;;4993181;28;20556;-88
2023/04/03 16:52:46;;;;;;;3.30;1.43;;;;;;;;;;4944177;29;20199;-90
2023/04/03 16:55:51;;;;;;;3.23;1.30;;;;;;;;;;4944209;29;20735;-86
2023/04/03 16:58:57;;;;;;;3.03;1.30;;;;;;;;;;4954837;29;20203;-87
2023/04/03 17:02:02;;;;;;;1.73;1.27;;;;;;;;;;4962202;28;20206;-86
2023/04/03 17:05:07;;;;;;;5.13;1.30;;;;;;;;;;5005471;28;20224;-86
2023/04/03 17:08:11;;;;;;;3.47;1.37;;;;;;;;;;4992616;28;20182;-85
2023/04/03 17:17:12;;;;;;;2.17;1.40;;;;;;;;;;5053995;28;20215;-88
2023/04/03 17:32:15;;;;;;;3.73;1.57;;;;;;;;;;5014800;28;20701;-90
2023/04/03 17:45:29;;;;;;;1.27;1.17;;;;;;;;;;5006175;28;20224;-89
2023/04/03 17:48:34;;;;;;;2.30;1.30;;;;;;;;;;5008892;28;20197;-89
2023/04/03 17:51:38;;;;;;;2.90;1.77;;;;;;;;;;5014016;28;20208;-88
2023/04/03 17:54:43;;;;;;;1.80;1.40;;;;;;;;;;4991720;28;20240;-88
2023/04/03 17:57:47;;;;;;;5.70;2.00;;;;;;;;;;4999203;28;20898;-86
2023/04/03 18:01:51;;;;;;;4.07;2.53;;;;;;;;;;5010019;28;20197;-88
2023/04/03 18:05:03;;;;;;;5.57;3.33;;;;;;;;;;5002908;28;20659;-86
2023/04/03 18:08:08;;;;;;;4.97;2.40;;;;;;;;;;4999302;28;20193;-85
2023/04/03 18:16:20;;;;;;;3.87;2.20;;;;;;;;;;5020680;28;20229;-87
2023/04/03 18:25:46;;;;;;;4.10;2.70;;;;;;;;;;5014445;28;20229;-86
2023/04/03 18:30:16;;;;;;;6.07;2.50;;;;;;;;;;5011935;28;20596;-87
2023/04/03 18:33:53;;;;;;;5.37;2.60;;;;;;;;;;4980985;28;20616;-87
2023/04/03 18:46:05;;;;;;;3.17;1.60;;;;;;;;;;4993605;28;20671;-88
2023/04/03 18:49:10;;;;;;;2.33;1.60;;;;;;;;;;4994052;28;20572;-88
2023/04/03 18:52:15;;;;;;;2.50;1.50;;;;;;;;;;5013556;28;20623;-87
2023/04/03 18:55:19;;;;;;;4.27;2.23;;;;;;;;;;5013216;28;20666;-87
2023/04/03 18:58:23;;;;;;;3.60;2.03;;;;;;;;;;5023473;28;20586;-86
2023/04/03 19:17:17;;;;;;;2.20;1.60;;;;;;;;;;5006640;28;20622;-87
2023/04/03 19:20:21;;;;;;;3.07;2.27;;;;;;;;;;5002030;28;20611;-87
2023/04/03 19:23:25;;;;;;;4.20;2.10;;;;;;;;;;5020991;28;20602;-88
2023/04/03 19:26:29;;;;;;;3.10;1.93;;;;;;;;;;5032963;28;20550;-87
2023/04/03 19:29:34;;;;;;;2.03;1.70;;;;;;;;;;5033331;28;20539;-88
2023/04/03 19:32:38;;;;;;;3.10;1.70;;;;;;;;;;4995775;28;20620;-87
2023/04/03 19:35:42;;;;;;;2.03;1.70;;;;;;;;;;4992957;28;20655;-88
2023/04/03 19:38:46;;;;;;;2.67;2.07;;;;;;;;;;5006329;28;20611;-87
2023/04/03 19:41:51;;;;;;;3.63;1.60;;;;;;;;;;5001463;28;20560;-87
2023/04/03 19:44:55;;;;;;;4.93;1.77;;;;;;;;;;5011808;28;21198;-88
2023/04/03 19:48:00;;;;;;;2.80;1.87;;;;;;;;;;5002030;28;20552;-87
2023/04/03 19:51:04;;;;;;;4.33;2.73;;;;;;;;;;5012494;28;20901;-88
2023/04/03 19:54:09;;;;;;;3.27;2.33;;;;;;;;;;5000961;28;20608;-89
2023/04/03 19:57:14;;;;;;;3.87;1.90;;;;;;;;;;5001634;28;20548;-88
2023/04/03 20:00:19;;;;;;;2.30;1.80;;;;;;;;;;5001033;28;21068;-87
2023/04/03 20:03:24;;;;;;;3.07;1.87;;;;;;;;;;5012599;28;20552;-87
2023/04/03 20:06:27;;;;;;;2.67;1.80;;;;;;;;;;5023526;28;20556;-90
2023/04/03 20:09:33;;;;;;;3.57;1.73;;;;;;;;;;5033323;28;20979;-87
2023/04/03 20:12:38;;;;;;;2.57;1.87;;;;;;;;;;5017689;28;20606;-87
2023/04/03 20:15:43;;;;;;;3.03;1.97;;;;;;;;;;5020092;28;20658;-87
2023/04/03 20:18:48;;;;;;;6.43;2.00;;;;;;;;;;5021112;28;21165;-87
2023/04/03 20:21:52;;;;;;;4.30;2.17;;;;;;;;;;5043220;28;20606;-87
2023/04/03 20:24:57;;;;;;;5.07;2.33;;;;;;;;;;5012495;28;20643;-87
2023/04/03 20:28:01;;;;;;;3.10;2.30;;;;;;;;;;5001812;28;20548;-89
2023/04/03 20:31:06;;;;;;;7.30;2.27;;;;;;;;;;5006735;28;20552;-85
2023/04/03 20:34:10;;;;;;;4.70;2.00;;;;;;;;;;5017202;23;20555;-76
2023/04/03 20:37:19;;;;;;;4.30;2.07;;;;;;;;;;5013802;28;20628;-75
2023/04/03 20:40:24;;;;;;;3.07;1.80;;;;;;;;;;5002581;28;21073;-75
2023/04/03 20:43:29;;;;;;;4.23;2.23;;;;;;;;;;5014267;28;20604;-75
2023/04/03 20:46:33;;;;;;;3.27;1.90;;;;;;;;;;5013483;28;20553;-75
2023/04/03 20:49:38;;;;;;;2.40;1.90;;;;;;;;;;4991321;28;20545;-75
2023/04/03 20:52:42;;;;;;;4.33;1.87;;;;;;;;;;5013683;28;20544;-75
2023/04/03 20:55:58;;;;;;;2.40;1.87;;;;;;;;;;5013369;28;20643;-75
2023/04/03 20:59:04;;;;;;;4.03;2.23;;;;;;;;;;5002435;28;20553;-75
2023/04/03 21:02:10;;;;;;;5.43;2.10;;;;;;;;;;5013258;28;20623;-75
2023/04/03 21:05:15;;;;;;;2.27;1.87;;;;;;;;;;5002121;28;20541;-76
2023/04/03 21:08:58;;;;;;;3.90;2.13;;;;;;;;;;5013449;28;20545;-75
2023/04/03 21:12:39;;;;;;;3.73;2.00;;;;;;;;;;5013786;28;20612;-75
2023/04/03 21:16:05;;;;;;;3.70;1.90;;;;;;;;;;5013889;28;20926;-75
2023/04/03 21:19:17;;;;;;;3.90;1.93;;;;;;;;;;5013943;28;20710;-76
2023/04/03 21:22:21;;;;;;;7.00;3.57;;;;;;;;;;5013027;28;20624;-75
2023/04/03 21:25:26;;;;;;;4.90;2.73;;;;;;;;;;5013888;28;20537;-76
2023/04/03 21:28:31;;;;;;;3.60;2.40;;;;;;;;;;5013499;28;20604;-75
2023/04/03 21:31:57;;;;;;;2.63;1.83;;;;;;;;;;5013668;28;20615;-75
2023/04/03 21:35:01;;;;;;;3.40;2.03;;;;;;;;;;5012425;28;21211;-75
2023/04/03 21:38:05;;;;;;;4.07;1.87;;;;;;;;;;5013699;28;20545;-75
2023/04/03 21:41:10;;;;;;;5.47;1.90;;;;;;;;;;5013449;28;20620;-76
2023/04/03 21:44:14;;;;;;;4.20;2.00;;;;;;;;;;5012760;28;20537;-76
2023/04/03 21:47:18;;;;;;;3.77;2.03;;;;;;;;;;5013545;28;20603;-75
2023/04/03 21:50:22;;;;;;;4.17;2.17;;;;;;;;;;5013180;28;20878;-75
2023/04/03 21:53:29;;;;;;;4.33;1.97;;;;;;;;;;5001447;28;21077;-75
2023/04/03 21:56:33;;;;;;;4.80;2.30;;;;;;;;;;5012410;28;20596;-75
2023/04/03 21:59:37;;;;;;;3.57;1.87;;;;;;;;;;4990334;28;20549;-76
2023/04/03 22:02:41;;;;;;;4.23;1.90;;;;;;;;;;5013378;28;20537;-75
2023/04/03 22:05:46;;;;;;;3.30;1.83;;;;;;;;;;5013286;28;21088;-75
2023/04/03 22:08:50;;;;;;;2.10;1.80;;;;;;;;;;5017240;28;20537;-75
2023/04/03 22:11:54;;;;;;;3.67;2.10;;;;;;;;;;5018766;28;20631;-75
2023/04/03 22:15:01;;;;;;;3.43;2.27;;;;;;;;;;5019504;28;20596;-75
2023/04/03 22:18:05;;;;;;;4.50;1.90;;;;;;;;;;5019826;28;20545;-75
2023/04/03 22:21:09;;;;;;;3.77;2.30;;;;;;;;;;5018607;28;20615;-76
2023/04/03 22:24:15;;;;;;;3.87;1.70;;;;;;;;;;5019647;28;20540;-76
2023/04/03 22:27:19;;;;;;;3.67;2.03;;;;;;;;;;5018856;28;20549;-76
2023/04/03 22:30:23;;;;;;;5.97;1.87;;;;;;;;;;5007735;28;20541;-75
2023/04/03 22:33:27;;;;;;;6.03;2.03;;;;;;;;;;5020052;28;20604;-75
2023/04/03 22:36:32;;;;;;;5.83;2.40;;;;;;;;;;5019368;28;20643;-76